Terminal Aerodrome Forecast
Issued by NWS

Home | Current Version | Previous Version | Text Only | Print | Product List | Glossary On
Versions: 1 2 3 4 5 6 7 8 9 10 11 12 13 14 15
630
FTUS42 TJSJ 282017 AAA
TAFKPK
TAF AMD
TKPK 282017Z 2820/2918 06015G24KT P6SM VCSH FEW015 SCT035 BKN060
      TEMPO 2820/2824 08024G34KT 3SM +TSRA FEW012CB BKN020 OVC050
     FM290000 07020KT P6SM VCTS FEW020CB BKN035 BKN100
     FM291600 05025G35KT P6SM SCT020 BKN030=

USA.gov is the U.S. government's official web portal to all federal, state and local government web resources and services.